Time;durP1;ratioP1;P1;durP2;ratioP2;P2;SDS_P1;SDS_P2;PMS_P1;PMS_P2;Temp;Humidity;BMP_temperature;BMP_pressure;BME280_temperature;BME280_humidity;BME280_pressure;Samples;Min_cycle;Max_cycle;Signal;HPM_P1;HPM_P2
2022/05/24 00:01:28;60994.00;0.20;106.20;0.00;0.00;0.62;;;;;22.30;1.00;;;;;;2280169;60;1755;-87
2022/05/24 00:03:56;70482.00;0.23;122.59;0.00;0.00;0.62;;;;;22.20;1.00;;;;;;2295427;55;3956;-86
2022/05/24 00:06:25;281051.00;0.94;485.34;0.00;0.00;0.62;;;;;22.40;1.00;;;;;;2290737;60;1745;-87
2022/05/24 00:08:52;75141.00;0.25;130.64;0.00;0.00;0.62;;;;;22.30;1.00;;;;;;2288961;60;1652;-89
2022/05/24 00:11:20;0.00;0.00;0.62;0.00;0.00;0.62;;;;;22.40;1.00;;;;;;2288296;60;1649;-87
2022/05/24 00:13:47;31317.00;0.10;54.86;0.00;0.00;0.62;;;;;22.40;1.00;;;;;;2288873;60;1628;-87
2022/05/24 00:16:15;57097.00;0.19;99.46;0.00;0.00;0.62;;;;;22.30;1.00;;;;;;2289057;60;1577;-88
2022/05/24 00:18:44;34166.00;0.11;59.79;0.00;0.00;0.62;;;;;22.10;1.00;;;;;;2289195;60;1576;-88
2022/05/24 00:21:11;71737.00;0.24;124.76;0.00;0.00;0.62;;;;;22.10;1.00;;;;;;2289105;60;1802;-89
2022/05/24 00:23:38;0.00;0.00;0.62;0.00;0.00;0.62;;;;;22.00;1.00;;;;;;2289016;60;2263;-87
2022/05/24 00:26:08;230696.00;0.77;398.75;98471.00;0.33;170.93;;;;;22.20;1.00;;;;;;2289029;60;1882;-87
2022/05/24 00:28:36;34714.00;0.12;60.74;0.00;0.00;0.62;;;;;22.30;1.00;;;;;;2289147;60;1073;-86
2022/05/24 00:31:04;261771.00;0.87;452.19;88943.00;0.30;154.48;;;;;22.30;1.00;;;;;;2289120;60;1002;-88
2022/05/24 00:33:34;0.00;0.00;0.62;0.00;0.00;0.62;;;;;22.20;1.00;;;;;;2289104;60;1789;-87
2022/05/24 00:36:02;0.00;0.00;0.62;0.00;0.00;0.62;;;;;22.20;1.00;;;;;;2289033;60;1796;-90
2022/05/24 00:38:33;0.00;0.00;0.62;0.00;0.00;0.62;;;;;22.20;1.00;;;;;;2289134;60;1117;-86
2022/05/24 00:41:11;68226.00;0.23;118.69;0.00;0.00;0.62;;;;;22.10;1.00;;;;;;2289062;60;1141;-89
2022/05/24 00:43:44;661.00;0.00;1.77;0.00;0.00;0.62;;;;;22.00;1.00;;;;;;2288927;60;1918;-87
2022/05/24 00:46:15;114598.00;0.38;198.76;17329.00;0.06;30.64;;;;;22.00;1.00;;;;;;2289065;60;1667;-88
2022/05/24 00:48:49;40195.00;0.13;70.23;0.00;0.00;0.62;;;;;22.10;1.00;;;;;;2288937;60;1720;-89
2022/05/24 00:51:26;0.00;0.00;0.62;0.00;0.00;0.62;;;;;22.10;1.00;;;;;;2289018;60;1029;-86
2022/05/24 00:53:54;10319.00;0.03;18.50;0.00;0.00;0.62;;;;;22.10;1.00;;;;;;2288955;60;1684;-87
2022/05/24 00:56:44;0.00;0.00;0.62;0.00;0.00;0.62;;;;;22.20;1.00;;;;;;2288988;60;1081;-87
2022/05/24 00:59:21;19542.00;0.07;34.48;0.00;0.00;0.62;;;;;22.30;1.00;;;;;;2288365;60;1536;-87
2022/05/24 01:01:50;9476.00;0.03;17.04;0.00;0.00;0.62;;;;;22.30;1.00;;;;;;2288993;60;1554;-87
2022/05/24 01:04:19;7713.00;0.03;13.99;0.00;0.00;0.62;;;;;22.20;1.00;;;;;;2288805;60;2016;-88
2022/05/24 01:06:49;71569.00;0.24;124.47;0.00;0.00;0.62;;;;;22.20;1.00;;;;;;2288957;60;1800;-87
2022/05/24 01:09:21;0.00;0.00;0.62;0.00;0.00;0.62;;;;;22.40;1.00;;;;;;2288942;60;1686;-88
2022/05/24 01:11:54;2938.00;0.01;5.71;0.00;0.00;0.62;;;;;22.50;1.00;;;;;;2288978;60;1624;-90
2022/05/24 01:14:23;147058.00;0.49;254.74;0.00;0.00;0.62;;;;;22.50;1.00;;;;;;2288990;60;1630;-87
2022/05/24 01:16:52;0.00;0.00;0.62;0.00;0.00;0.62;;;;;22.40;1.00;;;;;;2288903;60;1615;-86
2022/05/24 01:19:32;0.00;0.00;0.62;0.00;0.00;0.62;;;;;22.30;1.00;;;;;;2288929;60;1680;-88
2022/05/24 01:22:11;118030.00;0.39;204.68;0.00;0.00;0.62;;;;;22.30;1.00;;;;;;2288850;60;1442;-88
2022/05/24 01:24:46;28580.00;0.10;50.13;0.00;0.00;0.62;;;;;22.20;1.00;;;;;;2288664;60;2391;-90
2022/05/24 01:27:15;177755.00;0.59;307.62;56943.00;0.19;99.19;;;;;22.10;1.00;;;;;;2288864;60;1689;-89
2022/05/24 01:29:42;1836.00;0.01;3.80;0.00;0.00;0.62;;;;;22.10;1.00;;;;;;2288991;60;1008;-89
2022/05/24 01:37:38;33507.00;0.11;58.65;0.00;0.00;0.62;;;;;22.00;1.00;;;;;;2288844;60;648;-88
2022/05/24 01:40:07;0.00;0.00;0.62;0.00;0.00;0.62;;;;;22.00;1.00;;;;;;2288856;60;1674;-89
2022/05/24 01:42:36;49376.00;0.16;86.11;0.00;0.00;0.62;;;;;22.00;1.00;;;;;;2288789;60;2199;-88
2022/05/24 01:47:36;255889.00;0.85;442.08;0.00;0.00;0.62;;;;;22.00;1.00;;;;;;2290393;60;1421;-87
2022/05/24 01:50:08;0.00;0.00;0.62;0.00;0.00;0.62;;;;;22.00;1.00;;;;;;2288765;60;1698;-88
2022/05/24 01:52:40;0.00;0.00;0.62;0.00;0.00;0.62;;;;;22.00;1.00;;;;;;2288790;60;1691;-89
2022/05/24 01:55:12;0.00;0.00;0.62;0.00;0.00;0.62;;;;;22.00;1.00;;;;;;2284731;61;2220;-87
2022/05/24 01:57:45;30889.00;0.10;54.12;0.00;0.00;0.62;;;;;21.90;1.00;;;;;;2284836;61;1800;-88
2022/05/24 02:00:15;0.00;0.00;0.62;0.00;0.00;0.62;;;;;21.80;1.00;;;;;;2284779;61;1121;-87
2022/05/24 02:02:43;226055.00;0.75;390.76;30101.00;0.10;52.76;;;;;21.80;1.00;;;;;;2284669;61;1997;-88
2022/05/24 02:05:13;949102.00;3.16;1642.53;72766.00;0.24;126.54;;;;;21.90;1.00;;;;;;2284625;61;1058;-89
2022/05/24 02:07:40;880780.00;2.94;1522.39;60665.00;0.20;105.63;;;;;21.80;1.00;;;;;;2284688;61;1538;-87
2022/05/24 02:10:10;807309.00;2.69;1393.87;87229.00;0.29;151.52;;;;;21.70;1.00;;;;;;2284551;61;2382;-89
2022/05/24 02:12:44;771627.00;2.57;1331.68;10525.00;0.04;18.86;;;;;21.60;1.00;;;;;;2284591;61;2152;-89
2022/05/24 02:15:14;1032288.00;3.44;1789.74;109096.00;0.36;189.27;;;;;21.60;1.00;;;;;;2284676;61;1995;-88
2022/05/24 02:17:47;1078615.00;3.60;1872.22;83619.00;0.28;145.29;;;;;21.60;1.00;;;;;;2284689;61;1658;-89
2022/05/24 02:20:20;854025.00;2.85;1475.51;5000.00;0.02;9.29;;;;;21.60;1.00;;;;;;2301070;55;3756;-88
2022/05/24 02:22:49;1002345.00;3.34;1736.63;80116.00;0.27;139.24;;;;;21.50;1.00;;;;;;2284695;60;2004;-89
2022/05/24 02:25:21;784953.00;2.62;1354.89;31631.00;0.11;55.41;;;;;21.60;1.00;;;;;;2284592;60;1521;-87
2022/05/24 02:27:50;1207696.00;4.03;2104.14;136600.00;0.46;236.71;;;;;21.60;1.00;;;;;;2284686;60;1097;-88
2022/05/24 02:30:20;679976.00;2.27;1172.53;111802.00;0.37;193.94;;;;;21.60;1.00;;;;;;2284633;60;1770;-88
2022/05/24 02:32:47;230873.00;0.77;399.05;78402.00;0.26;136.28;;;;;21.50;1.00;;;;;;2284560;60;1293;-88
2022/05/24 02:35:14;163009.00;0.54;282.22;69871.00;0.23;121.54;;;;;21.30;1.00;;;;;;2284499;60;1850;-90
2022/05/24 02:37:42;178628.00;0.60;309.13;76258.00;0.25;132.57;;;;;21.20;1.00;;;;;;2284700;60;854;-89
2022/05/24 02:42:56;213462.00;0.71;369.09;71403.00;0.24;124.18;;;;;21.10;1.00;;;;;;2284638;60;1926;-88
2022/05/24 02:45:24;64518.00;0.22;112.29;0.00;0.00;0.62;;;;;21.10;1.00;;;;;;2284473;60;1684;-89
2022/05/24 02:47:51;107914.00;0.36;187.23;0.00;0.00;0.62;;;;;21.00;1.00;;;;;;2284444;60;1696;-89
2022/05/24 02:50:20;168899.00;0.56;292.37;0.00;0.00;0.62;;;;;21.00;1.00;;;;;;2284594;60;1712;-89
2022/05/24 02:52:48;54879.00;0.18;95.62;0.00;0.00;0.62;;;;;21.00;1.00;;;;;;2284589;60;1907;-89
2022/05/24 02:55:15;271891.00;0.91;469.60;0.00;0.00;0.62;;;;;20.90;1.00;;;;;;2284433;60;1758;-87
2022/05/24 02:57:43;33876.00;0.11;59.29;0.00;0.00;0.62;;;;;20.70;1.00;;;;;;2284632;60;967;-89
2022/05/24 03:00:16;24875.00;0.08;43.71;0.00;0.00;0.62;;;;;20.70;1.00;;;;;;2284547;60;979;-89
2022/05/24 03:02:43;16757.00;0.06;29.65;0.00;0.00;0.62;;;;;20.90;1.00;;;;;;2284524;60;1913;-89
2022/05/24 03:05:12;14061.00;0.05;24.98;0.00;0.00;0.62;;;;;20.50;1.00;;;;;;2284529;60;1575;-89
2022/05/24 03:10:23;237761.00;0.79;410.90;7621.00;0.03;13.83;;;;;20.50;1.00;;;;;;2284503;60;734;-89
2022/05/24 03:15:39;129612.00;0.43;224.66;39661.00;0.13;69.30;;;;;20.50;1.00;;;;;;2284673;60;711;-88
2022/05/24 03:18:06;0.00;0.00;0.62;0.00;0.00;0.62;;;;;20.50;1.00;;;;;;2284538;60;1654;-89
2022/05/24 03:20:34;0.00;0.00;0.62;0.00;0.00;0.62;;;;;20.50;1.00;;;;;;2284409;60;1803;-88
2022/05/24 03:23:02;40444.00;0.13;70.66;0.00;0.00;0.62;;;;;20.60;1.00;;;;;;2284401;60;1938;-87
2022/05/24 03:25:30;0.00;0.00;0.62;0.00;0.00;0.62;;;;;20.80;1.00;;;;;;2284522;60;1735;-89
2022/05/24 03:27:57;177184.00;0.59;306.64;41946.00;0.14;73.26;;;;;20.80;1.00;;;;;;2284456;60;1791;-89
2022/05/24 03:30:24;24439.00;0.08;42.96;0.00;0.00;0.62;;;;;20.70;1.00;;;;;;2284521;60;1608;-88
2022/05/24 03:32:52;245582.00;0.82;424.35;29817.00;0.10;52.27;;;;;20.70;1.00;;;;;;2284388;60;1431;-87
2022/05/24 03:35:20;992765.00;3.31;1719.66;46884.00;0.16;81.80;;;;;20.90;1.00;;;;;;2284429;60;1660;-86
2022/05/24 03:37:47;705449.00;2.35;1216.69;12211.00;0.04;21.78;;;;;20.90;1.00;;;;;;2284550;60;1671;-87
2022/05/24 03:40:15;883234.00;2.94;1526.69;63836.00;0.21;111.11;;;;;20.90;1.00;;;;;;2284447;60;1650;-88
2022/05/24 03:42:42;974869.00;3.25;1688.01;28317.00;0.09;49.67;;;;;20.60;1.00;;;;;;2284481;60;1654;-89
2022/05/24 03:45:11;964537.00;3.22;1669.76;94126.00;0.31;163.43;;;;;20.50;1.00;;;;;;2284363;60;1984;-88
2022/05/24 03:47:39;402192.00;1.34;693.57;86617.00;0.29;150.47;;;;;20.50;1.00;;;;;;2284557;60;1554;-87
2022/05/24 03:50:09;167243.00;0.56;289.52;76775.00;0.26;133.47;;;;;20.50;1.00;;;;;;2285235;60;1039;-88
2022/05/24 03:52:37;166586.00;0.56;288.39;79574.00;0.27;138.30;;;;;20.60;1.00;;;;;;2285201;60;1707;-87
2022/05/24 03:55:04;257063.00;0.86;444.10;71810.00;0.24;124.89;;;;;20.50;1.00;;;;;;2285162;60;1704;-88
2022/05/24 04:00:19;135333200.00;451.11;100442808.00;133247.00;0.44;230.93;;;;;20.50;1.00;;;;;;2285281;60;660;-87
2022/05/24 04:02:47;684688.00;2.28;1180.70;21618.00;0.07;38.07;;;;;20.30;1.00;;;;;;2285154;60;1689;-87
2022/05/24 04:05:16;1201412.00;4.00;2092.77;117911.00;0.39;204.48;;;;;20.30;1.00;;;;;;2285075;60;2012;-88
2022/05/24 04:07:43;971016.00;3.24;1681.20;123284.00;0.41;213.75;;;;;20.40;1.00;;;;;;2285153;60;1783;-88
2022/05/24 04:10:13;952481.00;3.17;1648.49;131013.00;0.44;227.08;;;;;20.60;1.00;;;;;;2285162;60;1782;-88
2022/05/24 04:12:51;519055.00;1.73;894.64;116811.00;0.39;202.58;;;;;20.80;1.00;;;;;;2285087;60;1756;-89
2022/05/24 04:15:19;636929.00;2.12;1098.03;95536.00;0.32;165.87;;;;;20.80;1.00;;;;;;2281493;61;1455;-89
2022/05/24 04:17:47;614476.00;2.05;1059.22;76300.00;0.25;132.65;;;;;21.00;1.00;;;;;;2281081;61;1112;-88
2022/05/24 04:20:17;1396243.00;4.65;2449.36;222491.00;0.74;384.63;;;;;21.10;1.00;;;;;;2280956;61;1141;-90
2022/05/24 04:22:44;759655.00;2.53;1310.85;99730.00;0.33;173.11;;;;;21.20;1.00;;;;;;2281027;61;1396;-87
2022/05/24 04:25:13;171862.00;0.57;297.47;76007.00;0.25;132.14;;;;;21.10;1.00;;;;;;2280951;61;2020;-90
2022/05/24 04:27:40;168122.00;0.56;291.03;76251.00;0.25;132.56;;;;;21.10;1.00;;;;;;2281104;61;1141;-87
2022/05/24 04:30:18;168707.00;0.56;292.04;71956.00;0.24;125.14;;;;;21.10;1.00;;;;;;2281030;61;1004;-88
2022/05/24 04:32:46;414279.00;1.38;714.35;132942.00;0.44;230.40;;;;;21.00;1.00;;;;;;2307653;40;3773;-88
2022/05/24 04:35:13;348406.00;1.16;601.12;78291.00;0.26;136.09;;;;;21.20;1.00;;;;;;2280853;61;1104;-88
2022/05/24 04:37:41;405974.00;1.35;700.08;181713.00;0.61;314.44;;;;;21.20;1.00;;;;;;2280856;61;1101;-87
2022/05/24 04:40:09;169659.00;0.57;293.68;77724.00;0.26;135.11;;;;;21.20;1.00;;;;;;2280799;61;1012;-89
2022/05/24 04:42:35;165949.00;0.55;287.29;78911.00;0.26;137.16;;;;;21.20;1.00;;;;;;2280834;61;1780;-88
2022/05/24 04:45:06;144990.00;0.48;251.17;19465.00;0.06;34.34;;;;;21.10;1.00;;;;;;2280667;61;2018;-89
2022/05/24 04:47:34;34694.00;0.12;60.71;0.00;0.00;0.62;;;;;21.10;1.00;;;;;;2280876;61;1079;-88
2022/05/24 04:50:04;45134.00;0.15;78.77;0.00;0.00;0.62;;;;;21.10;1.00;;;;;;2280741;61;943;-87
2022/05/24 04:52:35;0.00;0.00;0.62;0.00;0.00;0.62;;;;;21.20;1.00;;;;;;2280921;61;1110;-88
2022/05/24 04:55:05;14303.00;0.05;25.40;0.00;0.00;0.62;;;;;21.40;1.00;;;;;;2280775;61;1332;-88
2022/05/24 04:57:32;75405.00;0.25;131.10;0.00;0.00;0.62;;;;;21.30;1.00;;;;;;2280895;61;1039;-87
2022/05/24 04:59:59;62995.00;0.21;109.65;0.00;0.00;0.62;;;;;21.00;1.00;;;;;;2280711;61;1642;-88
2022/05/24 05:02:27;0.00;0.00;0.62;0.00;0.00;0.62;;;;;21.10;1.00;;;;;;2280826;61;1047;-90
2022/05/24 05:04:54;78629.00;0.26;136.67;0.00;0.00;0.62;;;;;21.10;1.00;;;;;;2280856;61;2002;-87
2022/05/24 05:07:22;271651.00;0.91;469.18;46858.00;0.16;81.75;;;;;21.00;1.00;;;;;;2280837;61;1079;-86
2022/05/24 05:09:50;0.00;0.00;0.62;0.00;0.00;0.62;;;;;21.00;1.00;;;;;;2280762;61;1698;-87
2022/05/24 05:12:20;295519.00;0.99;510.22;16130.00;0.05;28.57;;;;;21.00;1.00;;;;;;2280853;61;1617;-87
2022/05/24 05:14:47;70084.00;0.23;121.91;0.00;0.00;0.62;;;;;21.20;1.00;;;;;;2280884;61;1309;-87
2022/05/24 05:17:16;18086.00;0.06;31.96;0.00;0.00;0.62;;;;;21.20;1.00;;;;;;2280785;61;2198;-89
2022/05/24 05:19:43;10473.00;0.03;18.77;0.00;0.00;0.62;;;;;21.20;1.00;;;;;;2280802;61;1725;-86
2022/05/24 05:22:10;200610.00;0.67;346.97;22381.00;0.07;39.39;;;;;21.30;1.00;;;;;;2280823;61;1124;-89
2022/05/24 05:24:37;53431.00;0.18;93.12;0.00;0.00;0.62;;;;;21.50;1.00;;;;;;2280806;61;1907;-88
2022/05/24 05:27:05;89977.00;0.30;156.27;0.00;0.00;0.62;;;;;21.50;1.00;;;;;;2280698;61;1079;-88
2022/05/24 05:32:20;44549.00;0.15;77.76;0.00;0.00;0.62;;;;;21.60;1.00;;;;;;2280736;61;947;-88
2022/05/24 05:34:48;238950.00;0.80;412.95;11130.00;0.04;19.91;;;;;21.80;1.00;;;;;;2280749;61;1351;-86
2022/05/24 05:37:15;0.00;0.00;0.62;0.00;0.00;0.62;;;;;21.80;1.00;;;;;;2280774;61;1217;-89
2022/05/24 05:39:42;0.00;0.00;0.62;0.00;0.00;0.62;;;;;21.60;1.00;;;;;;2280710;61;1404;-87
2022/05/24 05:42:10;46560.00;0.16;81.24;0.00;0.00;0.62;;;;;21.60;1.00;;;;;;2280745;61;1035;-87
2022/05/24 05:44:39;0.00;0.00;0.62;0.00;0.00;0.62;;;;;21.80;1.00;;;;;;2280606;61;1998;-88
2022/05/24 05:47:07;0.00;0.00;0.62;0.00;0.00;0.62;;;;;21.80;1.00;;;;;;2280735;61;993;-87
2022/05/24 05:49:34;0.00;0.00;0.62;0.00;0.00;0.62;;;;;21.80;1.00;;;;;;2280725;61;2190;-88
2022/05/24 05:52:01;58373.00;0.19;101.66;0.00;0.00;0.62;;;;;21.80;1.00;;;;;;2280776;61;1105;-87
2022/05/24 05:54:29;0.00;0.00;0.62;0.00;0.00;0.62;;;;;21.80;1.00;;;;;;2280604;61;1381;-87
2022/05/24 05:56:55;37411.00;0.12;65.41;0.00;0.00;0.62;;;;;21.70;1.00;;;;;;2280669;61;933;-89
2022/05/24 05:59:23;205153.00;0.68;354.79;0.00;0.00;0.62;;;;;21.70;1.00;;;;;;2280688;61;1046;-89
2022/05/24 06:01:51;17176.00;0.06;30.38;0.00;0.00;0.62;;;;;21.90;1.00;;;;;;2280626;61;1511;-89
2022/05/24 06:04:18;40386.00;0.13;70.56;0.00;0.00;0.62;;;;;22.00;1.00;;;;;;2280630;61;2020;-88
2022/05/24 06:06:45;0.00;0.00;0.62;0.00;0.00;0.62;;;;;22.00;1.00;;;;;;2280660;61;1538;-87
2022/05/24 06:09:12;191747.00;0.64;331.72;57458.00;0.19;100.08;;;;;21.90;1.00;;;;;;2280659;61;829;-89
2022/05/24 06:11:40;0.00;0.00;0.62;0.00;0.00;0.62;;;;;22.10;1.00;;;;;;2280548;61;1070;-87
2022/05/24 06:14:08;16109.00;0.05;28.53;0.00;0.00;0.62;;;;;22.40;1.00;;;;;;2280530;61;1545;-87
2022/05/24 06:16:35;120274.00;0.40;208.56;0.00;0.00;0.62;;;;;22.50;1.00;;;;;;2280563;61;1171;-89
2022/05/24 06:19:04;1222555.00;4.08;2131.05;51841.00;0.17;90.37;;;;;22.80;1.00;;;;;;2280722;61;916;-88
2022/05/24 06:21:33;534421.00;1.78;921.11;10101.00;0.03;18.12;;;;;22.90;1.00;;;;;;2280662;61;1571;-87
2022/05/24 06:24:02;825848.00;2.75;1426.24;19108.00;0.06;33.73;;;;;22.80;1.00;;;;;;2280463;61;2004;-87
2022/05/24 06:26:30;734909.00;2.45;1267.83;37612.00;0.13;65.76;;;;;22.80;1.00;;;;;;2280461;61;1144;-87
2022/05/24 06:28:57;819723.00;2.73;1415.54;82987.00;0.28;144.20;;;;;23.00;1.00;;;;;;2280738;61;1151;-89
2022/05/24 06:31:25;863020.00;2.88;1491.26;40049.00;0.13;69.97;;;;;23.00;1.00;;;;;;2280560;61;1023;-87
2022/05/24 06:33:52;1180419.00;3.93;2054.86;151954.00;0.51;263.17;;;;;23.20;1.00;;;;;;2280449;61;1278;-87
2022/05/24 06:36:20;656225.00;2.19;1131.41;13706.00;0.05;24.37;;;;;23.40;1.00;;;;;;2280692;61;1111;-88
2022/05/24 06:38:47;1051823.00;3.51;1824.48;41171.00;0.14;71.91;;;;;23.10;1.00;;;;;;2280612;61;1120;-88
2022/05/24 06:41:14;1002666.00;3.34;1737.19;159695.00;0.53;276.51;;;;;23.10;1.00;;;;;;2280662;61;1001;-88
2022/05/24 06:43:41;949653.00;3.17;1643.50;81555.00;0.27;141.72;;;;;22.90;1.00;;;;;;2280491;61;2022;-88
2022/05/24 06:46:09;202981.00;0.68;351.05;40780.00;0.14;71.24;;;;;22.70;1.00;;;;;;2280618;61;1030;-88
2022/05/24 06:48:36;253984.00;0.85;438.80;70201.00;0.23;122.11;;;;;22.30;1.00;;;;;;2280577;61;1556;-87
2022/05/24 06:51:10;299525.00;1.00;517.10;73924.00;0.25;128.54;;;;;21.90;1.00;;;;;;2280513;61;1001;-87
2022/05/24 06:53:39;167924.00;0.56;290.69;74990.00;0.25;130.38;;;;;22.30;1.00;;;;;;2280613;61;1734;-90
2022/05/24 06:56:08;234611.00;0.78;405.48;76177.00;0.25;132.43;;;;;22.80;1.00;;;;;;2280458;61;1099;-89
2022/05/24 06:58:36;314121.00;1.05;542.19;72711.00;0.24;126.44;;;;;23.20;1.00;;;;;;2280455;61;1243;-88
2022/05/24 07:03:48;220560.00;0.74;381.31;74403.00;0.25;129.37;;;;;23.50;1.00;;;;;;2280469;61;1994;-88
2022/05/24 07:06:16;0.00;0.00;0.62;0.00;0.00;0.62;;;;;23.50;1.00;;;;;;2280472;61;1916;-87
2022/05/24 07:08:45;67665.00;0.23;117.73;0.00;0.00;0.62;;;;;23.50;1.00;;;;;;2280405;61;981;-88
2022/05/24 07:11:13;0.00;0.00;0.62;0.00;0.00;0.62;;;;;23.50;1.00;;;;;;2280447;61;1044;-88
2022/05/24 07:13:40;63301.00;0.21;110.18;0.00;0.00;0.62;;;;;23.50;1.00;;;;;;2280319;61;1783;-87
2022/05/24 07:16:08;62786.00;0.21;109.29;0.00;0.00;0.62;;;;;23.20;1.00;;;;;;2280556;61;1009;-90
2022/05/24 07:18:35;75990.00;0.25;132.11;0.00;0.00;0.62;;;;;23.10;1.00;;;;;;2280439;61;1308;-86
2022/05/24 07:21:04;252624.00;0.84;436.46;68489.00;0.23;119.15;;;;;22.80;1.00;;;;;;2280492;61;1071;-86
2022/05/24 07:23:33;36074.00;0.12;63.10;0.00;0.00;0.62;;;;;22.40;1.00;;;;;;2280934;61;1403;-88
2022/05/24 07:26:12;260308.00;0.87;449.68;19596.00;0.07;34.57;;;;;22.20;1.00;;;;;;2281093;61;2001;-87
2022/05/24 07:28:39;107792.00;0.36;187.02;0.00;0.00;0.62;;;;;21.80;1.00;;;;;;2281187;61;1133;-88
2022/05/24 07:31:06;0.00;0.00;0.62;0.00;0.00;0.62;;;;;21.50;1.00;;;;;;2281040;61;1094;-87
2022/05/24 07:33:33;134641.00;0.45;233.33;20188.00;0.07;35.60;;;;;21.40;1.00;;;;;;2281026;61;1327;-87
2022/05/24 07:36:00;88360.00;0.29;153.48;0.00;0.00;0.62;;;;;20.50;1.00;;;;;;2305008;55;3733;-87
2022/05/24 07:38:27;0.00;0.00;0.62;0.00;0.00;0.62;;;;;19.70;1.00;;;;;;2289171;60;2015;-88
2022/05/24 07:46:14;341204.00;1.14;588.74;5198.00;0.02;9.63;;;;;19.20;1.00;;;;;;2287159;60;1963;-88
2022/05/24 07:48:42;0.00;0.00;0.62;0.00;0.00;0.62;;;;;19.30;1.00;;;;;;2285146;60;1087;-88
2022/05/24 07:51:10;114063.00;0.38;197.84;0.00;0.00;0.62;;;;;19.60;1.00;;;;;;2285088;60;1085;-87
2022/05/24 07:53:37;77712.00;0.26;135.08;0.00;0.00;0.62;;;;;19.80;1.00;;;;;;2285106;60;1424;-86
2022/05/24 07:56:05;0.00;0.00;0.62;0.00;0.00;0.62;;;;;20.20;1.00;;;;;;2285003;60;1089;-86
2022/05/24 07:58:32;70253.00;0.23;122.20;0.00;0.00;0.62;;;;;19.90;1.00;;;;;;2285114;60;1098;-86
2022/05/24 08:01:00;0.00;0.00;0.62;0.00;0.00;0.62;;;;;19.60;1.00;;;;;;2284974;60;1019;-85
2022/05/24 08:03:29;0.00;0.00;0.62;0.00;0.00;0.62;;;;;19.40;1.00;;;;;;2284919;60;2341;-85
2022/05/24 08:05:57;240343.00;0.80;415.34;90536.00;0.30;157.23;;;;;19.20;1.00;;;;;;2284991;60;2002;-87
2022/05/24 08:08:24;18057.00;0.06;31.91;0.00;0.00;0.62;;;;;19.10;1.00;;;;;;2285075;60;1070;-87
2022/05/24 08:10:51;0.00;0.00;0.62;0.00;0.00;0.62;;;;;19.20;1.00;;;;;;2285077;60;1074;-90
2022/05/24 08:13:19;0.00;0.00;0.62;0.00;0.00;0.62;;;;;19.60;1.00;;;;;;2293279;39;3589;-87
2022/05/24 08:15:47;133141.00;0.44;230.75;30868.00;0.10;54.09;;;;;19.60;1.00;;;;;;2285022;60;933;-87
2022/05/24 08:18:14;42428.00;0.14;74.09;0.00;0.00;0.62;;;;;19.90;1.00;;;;;;2284938;60;1071;-87
2022/05/24 08:20:42;64896.00;0.22;112.94;0.00;0.00;0.62;;;;;20.40;1.00;;;;;;2284880;60;1022;-88
2022/05/24 08:23:09;0.00;0.00;0.62;0.00;0.00;0.62;;;;;21.00;1.00;;;;;;2284899;60;1876;-89
2022/05/24 08:25:36;12856.00;0.04;22.90;0.00;0.00;0.62;;;;;21.50;1.00;;;;;;2284895;60;1919;-87
2022/05/24 08:28:07;45035.00;0.15;78.60;0.00;0.00;0.62;;;;;21.60;1.00;;;;;;2284919;60;1178;-88
2022/05/24 08:33:05;172503.00;0.58;298.58;0.00;0.00;0.62;;;;;21.70;1.00;;;;;;2290788;60;1417;-88
2022/05/24 08:35:33;110339.00;0.37;191.41;0.00;0.00;0.62;;;;;21.50;1.00;;;;;;2289078;60;1073;-87
2022/05/24 08:38:04;0.00;0.00;0.62;0.00;0.00;0.62;;;;;21.80;1.00;;;;;;2288884;60;1683;-88
2022/05/24 08:40:32;0.00;0.00;0.62;0.00;0.00;0.62;;;;;22.20;1.00;;;;;;2288819;60;1002;-87
2022/05/24 08:43:32;0.00;0.00;0.62;0.00;0.00;0.62;;;;;22.50;1.00;;;;;;2288975;60;1375;-88
2022/05/24 08:48:52;0.00;0.00;0.62;0.00;0.00;0.62;;;;;23.00;1.00;;;;;;2289014;60;680;-87
2022/05/24 08:51:24;73066.00;0.24;127.06;0.00;0.00;0.62;;;;;22.80;1.00;;;;;;2288779;60;1045;-87
2022/05/24 08:53:57;83400.00;0.28;144.91;0.00;0.00;0.62;;;;;22.60;1.00;;;;;;2288909;60;1467;-88
2022/05/24 08:56:30;106066.00;0.35;184.04;0.00;0.00;0.62;;;;;22.50;1.00;;;;;;2288961;60;1064;-87
2022/05/24 08:59:03;88918.00;0.30;154.44;21293.00;0.07;37.51;;;;;22.50;1.00;;;;;;2288940;60;2156;-88
2022/05/24 09:01:32;0.00;0.00;0.62;0.00;0.00;0.62;;;;;22.10;1.00;;;;;;2288973;60;1465;-87
2022/05/24 09:03:59;6169.00;0.02;11.31;0.00;0.00;0.62;;;;;21.50;1.00;;;;;;2288752;60;1393;-87
2022/05/24 09:06:43;71048.00;0.24;123.57;0.00;0.00;0.62;;;;;21.50;1.00;;;;;;2288714;60;2017;-90
2022/05/24 09:09:28;0.00;0.00;0.62;0.00;0.00;0.62;;;;;21.70;1.00;;;;;;2288844;60;1086;-87
2022/05/24 09:12:08;0.00;0.00;0.62;0.00;0.00;0.62;;;;;22.00;1.00;;;;;;2288948;60;1058;-88
2022/05/24 09:14:47;0.00;0.00;0.62;0.00;0.00;0.62;;;;;21.50;1.00;;;;;;2288869;60;2082;-89
2022/05/24 09:17:34;0.00;0.00;0.62;0.00;0.00;0.62;;;;;21.50;1.00;;;;;;2288888;60;1140;-87
2022/05/24 09:20:06;0.00;0.00;0.62;0.00;0.00;0.62;;;;;22.30;1.00;;;;;;2288340;60;929;-87
2022/05/24 09:22:36;63385.00;0.21;110.33;0.00;0.00;0.62;;;;;22.50;1.00;;;;;;2288837;60;1407;-88
2022/05/24 09:25:06;117837.00;0.39;204.35;12311.00;0.04;21.95;;;;;22.90;1.00;;;;;;2288679;60;1919;-87
2022/05/24 09:27:51;0.00;0.00;0.62;0.00;0.00;0.62;;;;;23.10;1.00;;;;;;2288775;60;933;-88
2022/05/24 09:30:35;284379.00;0.95;491.07;31386.00;0.10;54.98;;;;;23.10;1.00;;;;;;2288843;60;1246;-90
2022/05/24 09:33:23;147907.00;0.49;256.20;11969.00;0.04;21.36;;;;;23.20;1.00;;;;;;2288615;60;1334;-86
2022/05/24 09:36:01;0.00;0.00;0.62;0.00;0.00;0.62;;;;;23.50;1.00;;;;;;2288795;60;2196;-87
2022/05/24 09:38:35;28950.00;0.10;50.77;0.00;0.00;0.62;;;;;24.00;1.00;;;;;;2288841;60;950;-88
2022/05/24 09:41:14;3159.00;0.01;6.10;0.00;0.00;0.62;;;;;24.20;1.00;;;;;;2288701;60;1527;-89
2022/05/24 09:43:41;0.00;0.00;0.62;0.00;0.00;0.62;;;;;24.30;1.00;;;;;;2288689;60;1664;-88
2022/05/24 09:46:13;0.00;0.00;0.62;0.00;0.00;0.62;;;;;24.20;1.00;;;;;;2288428;60;1919;-87
2022/05/24 09:48:56;7934.00;0.03;14.37;0.00;0.00;0.62;;;;;24.20;1.00;;;;;;2288655;60;2294;-88
2022/05/24 09:51:26;0.00;0.00;0.62;0.00;0.00;0.62;;;;;24.50;1.00;;;;;;2288731;60;1778;-88
2022/05/24 09:53:55;152861.00;0.51;264.74;41865.00;0.14;73.11;;;;;24.60;1.00;;;;;;2288716;60;1347;-90
2022/05/24 09:56:26;0.00;0.00;0.62;0.00;0.00;0.62;;;;;24.70;1.00;;;;;;2288714;60;1135;-88
2022/05/24 10:01:35;192224.00;0.64;332.54;0.00;0.00;0.62;;;;;24.20;1.00;;;;;;2286329;60;1345;-88
2022/05/24 10:04:18;53740.00;0.18;93.65;0.00;0.00;0.62;;;;;24.50;1.00;;;;;;2284591;60;1722;-88
2022/05/24 10:06:55;0.00;0.00;0.62;0.00;0.00;0.62;;;;;24.80;1.00;;;;;;2284436;60;2008;-87
2022/05/24 10:09:51;0.00;0.00;0.62;0.00;0.00;0.62;;;;;25.00;1.00;;;;;;2284484;60;927;-88
2022/05/24 10:12:47;12751.00;0.04;22.71;0.00;0.00;0.62;;;;;24.40;1.00;;;;;;2275545;60;1687;-87
2022/05/24 10:15:24;0.00;0.00;0.62;0.00;0.00;0.62;;;;;24.40;1.00;;;;;;2284575;60;1480;-89
2022/05/24 10:20:32;202799.00;0.68;350.74;0.00;0.00;0.62;;;;;24.30;1.00;;;;;;2286213;60;1347;-88
2022/05/24 10:25:41;230979.00;0.77;399.23;0.00;0.00;0.62;;;;;24.10;1.00;;;;;;2317078;56;3626;-88
2022/05/24 10:30:51;178264.00;0.59;308.50;0.00;0.00;0.62;;;;;24.10;1.00;;;;;;2286263;60;1385;-87
2022/05/24 10:39:25;0.00;0.00;0.62;0.00;0.00;0.62;;;;;24.80;1.00;;;;;;2284575;60;637;-91
2022/05/24 10:42:02;0.00;0.00;0.62;0.00;0.00;0.62;;;;;24.70;1.00;;;;;;2284482;60;1714;-88
2022/05/24 10:47:06;301395.00;1.00;520.32;0.00;0.00;0.62;;;;;24.20;1.00;;;;;;2286259;60;1980;-87
2022/05/24 10:52:16;589681.00;1.97;1016.41;0.00;0.00;0.62;;;;;23.70;1.00;;;;;;2284970;55;3697;-88
2022/05/24 10:54:51;45557.00;0.15;79.50;0.00;0.00;0.62;;;;;24.00;1.00;;;;;;2283734;60;1478;-88
2022/05/24 11:04:56;267925.00;0.89;462.78;0.00;0.00;0.62;;;;;24.30;1.00;;;;;;2277787;61;1309;-90
2022/05/24 11:07:27;39772.00;0.13;69.49;0.00;0.00;0.62;;;;;24.30;1.00;;;;;;2276197;61;1085;-87
2022/05/24 11:10:03;4219.00;0.01;7.93;0.00;0.00;0.62;;;;;24.80;1.00;;;;;;2275996;61;1044;-88
2022/05/24 11:12:36;63371.00;0.21;110.30;0.00;0.00;0.62;;;;;25.10;1.00;;;;;;2276063;61;1654;-89
2022/05/24 11:15:10;0.00;0.00;0.62;0.00;0.00;0.62;;;;;25.20;1.00;;;;;;2275872;61;1348;-89
2022/05/24 11:17:37;0.00;0.00;0.62;0.00;0.00;0.62;;;;;25.30;1.00;;;;;;2289269;55;3720;-88